Time;durP1;ratioP1;P1;durP2;ratioP2;P2;SDS_P1;SDS_P2;PMS_P1;PMS_P2;Temp;Humidity;BMP_temperature;BMP_pressure;BME280_temperature;BME280_humidity;BME280_pressure;Samples;Min_cycle;Max_cycle;Signal;HPM_P1;HPM_P2
2023/06/08 00:01:31;;;;;;;11.43;6.22;;;486.60;2380.80;;;;;;4911041;29;20024;-72
2023/06/08 00:03:56;;;;;;;10.75;6.28;;;486.60;2380.80;;;;;;4905555;29;20032;-73
2023/06/08 00:06:26;;;;;;;11.35;5.93;;;486.60;2380.80;;;;;;4912448;29;20067;-74
2023/06/08 00:08:51;;;;;;;7.80;5.60;;;486.50;2380.80;;;;;;4908196;29;20032;-74
2023/06/08 00:11:17;;;;;;;9.40;6.00;;;486.50;2380.80;;;;;;4923840;29;20104;-74
2023/06/08 00:13:43;;;;;;;8.52;5.18;;;486.60;2380.80;;;;;;4905305;29;20093;-71
2023/06/08 00:16:09;;;;;;;9.40;5.38;;;486.50;2380.80;;;;;;4909089;29;20041;-76
2023/06/08 00:18:36;;;;;;;10.55;6.95;;;486.50;2380.80;;;;;;4912618;29;20486;-73
2023/06/08 00:21:03;;;;;;;9.98;6.35;;;486.50;2380.80;;;;;;4905847;29;20021;-73
2023/06/08 00:23:28;;;;;;;16.50;6.72;;;486.50;2380.80;;;;;;4905519;29;20063;-75
2023/06/08 00:25:54;;;;;;;10.02;5.95;;;486.40;2380.80;;;;;;4912467;29;20093;-79
2023/06/08 00:28:20;;;;;;;10.18;6.25;;;486.40;2380.80;;;;;;4918578;29;20024;-70
2023/06/08 00:30:46;;;;;;;12.50;5.68;;;486.40;2380.80;;;;;;4918453;29;20027;-70
2023/06/08 00:33:12;;;;;;;8.77;5.55;;;486.40;2380.80;;;;;;4883236;29;20407;-72
2023/06/08 00:35:38;;;;;;;15.93;6.47;;;486.40;2380.80;;;;;;4899699;29;20020;-75
2023/06/08 00:38:03;;;;;;;8.25;5.95;;;486.40;2380.80;;;;;;4898934;29;20433;-79
2023/06/08 00:40:29;;;;;;;7.63;5.63;;;486.40;2380.80;;;;;;4899314;29;20600;-72
2023/06/08 00:42:55;;;;;;;8.75;6.22;;;486.50;2380.80;;;;;;4899263;29;20051;-73
2023/06/08 00:45:20;;;;;;;11.75;5.88;;;486.50;2380.80;;;;;;4899139;29;20112;-75
2023/06/08 00:47:47;;;;;;;9.48;6.00;;;486.40;2380.80;;;;;;4907821;29;20095;-74
2023/06/08 00:50:16;;;;;;;10.95;6.15;;;486.40;2380.80;;;;;;4917468;29;20036;-75
2023/06/08 00:52:44;;;;;;;9.60;5.93;;;486.40;2380.80;;;;;;4903665;29;20081;-79
2023/06/08 00:58:37;;;;;;;11.63;6.20;;;461.50;2380.80;;;;;;4857483;29;20166;-74
2023/06/08 01:01:03;;;;;;;12.00;6.95;;;461.70;2380.80;;;;;;4858961;29;20034;-74
2023/06/08 01:03:35;;;;;;;12.27;6.35;;;461.60;2380.80;;;;;;4860270;29;20025;-75
2023/06/08 01:06:07;;;;;;;9.10;6.18;;;461.70;2380.80;;;;;;4860639;29;20022;-77
2023/06/08 01:09:09;;;;;;;11.43;5.93;;;461.60;2380.80;;;;;;4859246;29;20033;-78
2023/06/08 01:11:42;;;;;;;12.15;6.65;;;461.70;2380.80;;;;;;4860302;29;20436;-78
2023/06/08 01:14:38;;;;;;;11.27;6.72;;;461.70;2380.80;;;;;;4874756;29;20033;-80
2023/06/08 01:17:09;;;;;;;11.63;6.20;;;461.70;2380.80;;;;;;4824639;29;20049;-77
2023/06/08 01:19:47;;;;;;;18.38;6.72;;;461.70;2380.80;;;;;;4839993;29;20538;-79
2023/06/08 01:22:28;;;;;;;9.60;6.40;;;461.70;2380.80;;;;;;4840119;29;20136;-80
2023/06/08 01:24:59;;;;;;;9.02;6.25;;;486.40;2380.80;;;;;;4839920;29;20067;-77
2023/06/08 01:27:31;;;;;;;11.27;5.95;;;461.70;2380.80;;;;;;4839618;29;20042;-80
2023/06/08 01:29:57;;;;;;;11.57;7.05;;;461.70;2380.80;;;;;;4839755;29;20132;-79
2023/06/08 01:32:23;;;;;;;9.98;6.30;;;461.70;2380.80;;;;;;4839763;29;20105;-77
2023/06/08 01:34:49;;;;;;;9.27;6.38;;;461.70;2380.80;;;;;;4839718;29;20121;-75
2023/06/08 01:37:19;;;;;;;10.57;6.80;;;461.70;2380.80;;;;;;4840270;29;20109;-78
2023/06/08 01:39:51;;;;;;;8.40;4.93;;;461.70;2380.80;;;;;;4839354;29;20041;-80
2023/06/08 01:42:19;;;;;;;10.25;5.80;;;461.70;2380.80;;;;;;4839846;29;20045;-77
2023/06/08 01:44:52;;;;;;;12.57;6.90;;;461.70;2380.80;;;;;;4839438;29;20033;-76
2023/06/08 01:47:19;;;;;;;13.63;6.30;;;461.70;2380.80;;;;;;4839862;29;20128;-73
2023/06/08 01:49:47;;;;;;;9.75;6.28;;;461.70;2380.80;;;;;;4838729;29;20042;-73
2023/06/08 01:52:13;;;;;;;9.20;6.45;;;461.70;2380.80;;;;;;4839454;29;20083;-77
2023/06/08 01:54:40;;;;;;;12.38;6.40;;;486.40;2380.80;;;;;;4859871;29;20033;-76
2023/06/08 01:57:06;;;;;;;12.57;6.63;;;486.40;2380.80;;;;;;4874639;29;20087;-73
2023/06/08 01:59:32;;;;;;;9.27;6.68;;;486.50;2380.80;;;;;;4897243;29;20029;-78
2023/06/08 02:01:58;;;;;;;10.75;5.78;;;486.40;2380.80;;;;;;4896862;29;20083;-77
2023/06/08 02:04:23;;;;;;;12.68;7.25;;;486.40;2380.80;;;;;;4897252;29;20029;-78
2023/06/08 02:06:49;;;;;;;13.48;6.28;;;486.40;2380.80;;;;;;4880247;29;20557;-77
2023/06/08 02:09:15;;;;;;;9.23;5.97;;;486.40;2380.80;;;;;;4897104;29;20526;-72
2023/06/08 02:11:40;;;;;;;9.48;6.03;;;461.70;2380.80;;;;;;4896968;29;20169;-75
2023/06/08 02:14:06;;;;;;;10.88;6.65;;;486.40;2380.80;;;;;;4896929;29;20029;-78
2023/06/08 02:16:33;;;;;;;14.90;6.72;;;486.40;2380.80;;;;;;4897263;29;20032;-79
2023/06/08 02:19:00;;;;;;;13.15;6.38;;;461.70;2380.80;;;;;;4897064;29;20033;-76
2023/06/08 02:21:26;;;;;;;11.57;7.60;;;461.60;2380.80;;;;;;4897537;29;20032;-72
2023/06/08 02:23:51;;;;;;;12.27;6.72;;;461.50;2380.80;;;;;;4902577;29;20027;-73
2023/06/08 02:26:18;;;;;;;10.00;6.40;;;;;;;;;;4911247;29;20033;-74
2023/06/08 02:28:44;;;;;;;12.23;6.30;;;;;;;;;;4906688;29;20541;-73
2023/06/08 02:31:09;;;;;;;13.40;6.97;;;461.50;2380.80;;;;;;4897016;29;20029;-73
2023/06/08 02:33:35;;;;;;;9.93;6.57;;;461.40;2380.80;;;;;;4896770;29;20088;-80
2023/06/08 02:36:01;;;;;;;11.93;6.72;;;461.40;2380.80;;;;;;4897226;29;20029;-81
2023/06/08 02:38:26;;;;;;;10.40;6.55;;;461.30;2380.80;;;;;;4896867;29;20063;-72
2023/06/08 02:40:52;;;;;;;10.68;6.95;;;461.30;2380.80;;;;;;4897098;29;20091;-76
2023/06/08 02:43:19;;;;;;;13.88;7.13;;;461.20;2380.80;;;;;;4896913;29;20036;-75
2023/06/08 02:45:45;;;;;;;12.75;7.10;;;461.30;2380.80;;;;;;4896634;29;20050;-79
2023/06/08 02:48:10;;;;;;;12.57;6.50;;;461.30;2380.80;;;;;;4884642;29;20104;-78
2023/06/08 02:50:36;;;;;;;11.95;7.00;;;461.30;2380.80;;;;;;4896685;29;20520;-73
2023/06/08 02:53:02;;;;;;;16.42;7.65;;;461.30;2380.80;;;;;;4896948;29;20107;-77
2023/06/08 02:55:34;;;;;;;11.95;6.60;;;461.30;2380.80;;;;;;4896241;29;20024;-75
2023/06/08 02:58:00;;;;;;;10.63;6.57;;;461.30;2380.80;;;;;;4896792;29;20128;-79
2023/06/08 03:00:26;;;;;;;8.63;6.68;;;461.40;2380.80;;;;;;4896958;29;20021;-80
2023/06/08 03:02:52;;;;;;;16.63;6.97;;;461.40;2380.80;;;;;;4900353;29;20036;-71
2023/06/08 03:05:18;;;;;;;13.10;6.97;;;461.30;2380.80;;;;;;4899951;29;20039;-75
2023/06/08 03:07:44;;;;;;;14.23;7.20;;;;;;;;;;4899904;29;20030;-80
2023/06/08 03:10:09;;;;;;;19.60;8.70;;;461.30;2380.80;;;;;;4900102;29;20075;-80
2023/06/08 03:12:35;;;;;;;13.90;7.22;;;461.10;2380.80;;;;;;4899826;29;20064;-74
2023/06/08 03:15:01;;;;;;;22.65;8.07;;;461.10;2380.80;;;;;;4900020;29;20024;-76
2023/06/08 03:17:27;;;;;;;11.15;7.30;;;461.10;2380.80;;;;;;4899822;29;20028;-79
2023/06/08 03:19:53;;;;;;;13.15;7.43;;;461.10;2380.80;;;;;;4900089;29;20435;-79
2023/06/08 03:22:19;;;;;;;14.75;7.18;;;461.10;2380.80;;;;;;4899633;29;20048;-80
2023/06/08 03:24:48;;;;;;;16.42;6.82;;;461.10;2380.80;;;;;;4899822;29;20036;-78
2023/06/08 03:27:15;;;;;;;12.95;7.60;;;461.20;2380.80;;;;;;4899213;29;20040;-73
2023/06/08 03:29:41;;;;;;;12.60;7.18;;;461.10;2380.80;;;;;;4882566;29;20045;-80
2023/06/08 03:32:07;;;;;;;12.10;7.28;;;461.10;2380.80;;;;;;4899501;29;20116;-77
2023/06/08 03:34:33;;;;;;;16.48;7.22;;;461.20;2380.80;;;;;;4899638;29;20032;-73
2023/06/08 03:36:59;;;;;;;9.25;6.80;;;461.20;2380.80;;;;;;4899830;29;20032;-77
2023/06/08 03:39:25;;;;;;;11.40;6.60;;;461.20;2380.80;;;;;;4882272;29;20064;-77
2023/06/08 03:41:51;;;;;;;8.93;6.53;;;461.30;2380.80;;;;;;4899401;29;20056;-80
2023/06/08 03:44:17;;;;;;;9.93;6.50;;;461.30;2380.80;;;;;;4899251;29;20035;-79
2023/06/08 03:46:44;;;;;;;13.68;6.88;;;461.30;2380.80;;;;;;4899447;29;20099;-79
2023/06/08 03:49:10;;;;;;;13.02;7.97;;;461.30;2380.80;;;;;;4882182;29;20040;-77
2023/06/08 03:51:37;;;;;;;14.18;7.28;;;461.30;2380.80;;;;;;4899426;29;20025;-74
2023/06/08 03:54:03;;;;;;;12.68;6.70;;;461.40;2380.80;;;;;;4898986;29;20028;-77
2023/06/08 03:56:29;;;;;;;10.07;6.80;;;461.40;2380.80;;;;;;4898656;29;20072;-72
2023/06/08 03:58:56;;;;;;;12.43;7.10;;;461.40;2380.80;;;;;;4899206;29;20102;-80
2023/06/08 04:01:22;;;;;;;12.80;7.28;;;461.40;2380.80;;;;;;4899012;29;20489;-79
2023/06/08 04:03:48;;;;;;;24.58;7.82;;;461.50;2380.80;;;;;;4899109;29;20024;-80
2023/06/08 04:06:16;;;;;;;20.30;8.63;;;461.50;2380.80;;;;;;4899133;29;20028;-77
2023/06/08 04:08:44;;;;;;;10.43;6.82;;;461.60;2380.80;;;;;;4899009;29;20475;-78
2023/06/08 04:11:10;;;;;;;13.07;7.00;;;461.70;2380.80;;;;;;4898597;29;20035;-76
2023/06/08 04:13:38;;;;;;;12.15;7.38;;;461.70;2380.80;;;;;;4898157;29;20081;-76
2023/06/08 04:16:08;;;;;;;12.05;7.20;;;486.40;2380.80;;;;;;4898640;29;20387;-77
2023/06/08 04:18:35;;;;;;;14.07;7.20;;;486.40;2380.80;;;;;;4898644;29;20043;-80
2023/06/08 04:21:01;;;;;;;11.07;7.07;;;486.50;2380.80;;;;;;4898804;29;20025;-78
2023/06/08 04:23:27;;;;;;;10.13;6.72;;;486.50;2380.80;;;;;;4898684;29;20027;-80
2023/06/08 04:25:54;;;;;;;12.90;7.90;;;486.60;2380.80;;;;;;4898806;29;20501;-80
2023/06/08 04:28:21;;;;;;;12.98;8.07;;;486.70;2380.80;;;;;;4898246;29;20124;-79
2023/06/08 04:30:48;;;;;;;11.68;7.65;;;486.80;2380.80;;;;;;4898624;29;20025;-80
2023/06/08 04:33:15;;;;;;;12.75;7.18;;;486.80;2380.80;;;;;;4898129;29;20479;-77
2023/06/08 04:35:41;;;;;;;12.75;7.20;;;486.70;2380.80;;;;;;4898541;29;20054;-80
2023/06/08 04:38:14;;;;;;;12.30;7.50;;;486.70;2380.80;;;;;;4898019;29;20092;-79
2023/06/08 04:40:45;;;;;;;11.32;8.02;;;;;;;;;;4904497;29;20044;-79
2023/06/08 04:43:13;;;;;;;12.93;7.38;;;486.80;2380.80;;;;;;4898304;29;20068;-79
2023/06/08 04:45:43;;;;;;;18.27;8.73;;;486.90;2380.80;;;;;;4897958;29;20024;-78
2023/06/08 04:48:10;;;;;;;14.15;6.82;;;486.80;2380.80;;;;;;4898102;29;20023;-79
2023/06/08 04:50:37;;;;;;;14.77;8.30;;;486.80;2380.80;;;;;;4898026;29;20124;-76
2023/06/08 04:53:04;;;;;;;15.80;9.15;;;486.80;2380.80;;;;;;4886016;29;20025;-79
2023/06/08 04:55:30;;;;;;;14.30;7.55;;;486.90;2380.80;;;;;;4897906;29;20032;-73
2023/06/08 04:57:57;;;;;;;12.77;7.10;;;486.90;2380.80;;;;;;4897719;29;20049;-80
2023/06/08 05:00:23;;;;;;;12.68;8.55;;;487.00;2380.80;;;;;;4897802;29;20043;-77
2023/06/08 05:02:49;;;;;;;14.68;7.68;;;487.10;2380.80;;;;;;4898111;29;20483;-77
2023/06/08 05:05:15;;;;;;;13.25;7.78;;;487.10;2380.80;;;;;;4898072;29;20415;-75
2023/06/08 05:07:42;;;;;;;15.07;7.95;;;487.10;2380.80;;;;;;4897559;29;20028;-78
2023/06/08 05:10:08;;;;;;;14.98;7.90;;;487.20;2380.80;;;;;;4897755;29;20041;-79
2023/06/08 05:12:33;;;;;;;11.15;7.82;;;512.20;2380.80;;;;;;4897469;29;20031;-76
2023/06/08 05:15:02;;;;;;;13.13;7.03;;;512.10;2380.80;;;;;;4897892;29;20028;-77
2023/06/08 05:17:28;;;;;;;13.20;7.15;;;512.20;2380.80;;;;;;4897426;29;20017;-79
2023/06/08 05:19:54;;;;;;;15.85;6.28;;;512.20;2380.80;;;;;;4897585;29;20040;-75
2023/06/08 05:22:19;;;;;;;13.68;6.53;;;512.30;2380.80;;;;;;4897427;29;20031;-75
2023/06/08 05:24:45;;;;;;;10.30;6.68;;;512.30;2380.80;;;;;;4897221;29;20029;-72
2023/06/08 05:27:10;;;;;;;12.07;6.82;;;512.40;2380.80;;;;;;4895219;29;20072;-74
2023/06/08 05:29:36;;;;;;;8.25;5.80;;;512.50;2380.80;;;;;;4880446;29;20057;-77
2023/06/08 05:32:02;;;;;;;11.07;6.53;;;512.60;2380.80;;;;;;4898157;29;20028;-74
2023/06/08 05:34:28;;;;;;;14.20;7.53;;;512.80;2380.80;;;;;;4897900;29;20027;-73
2023/06/08 05:36:54;;;;;;;12.45;6.65;;;512.90;2380.80;;;;;;4897958;29;20020;-78
2023/06/08 05:39:20;;;;;;;11.48;6.22;;;512.90;2380.80;;;;;;4897789;29;20020;-74
2023/06/08 05:41:46;;;;;;;14.82;6.22;;;512.90;2380.80;;;;;;4897786;29;20036;-79
2023/06/08 05:44:12;;;;;;;12.10;6.88;;;537.60;2406.40;;;;;;4898274;29;20033;-78
2023/06/08 05:46:37;;;;;;;11.10;6.80;;;537.60;2406.40;;;;;;4880926;29;20471;-75
2023/06/08 05:49:03;;;;;;;13.25;6.22;;;537.70;2406.40;;;;;;4898203;29;20048;-78
2023/06/08 05:51:29;;;;;;;11.68;6.25;;;537.70;2406.40;;;;;;4897856;29;20518;-74
2023/06/08 05:53:55;;;;;;;8.80;6.07;;;537.70;2406.40;;;;;;4902993;29;20033;-73
2023/06/08 05:56:21;;;;;;;8.40;5.82;;;537.90;2406.40;;;;;;4905782;29;20028;-73
2023/06/08 05:58:47;;;;;;;9.32;5.53;;;537.90;2406.40;;;;;;4884882;29;20048;-75
2023/06/08 06:01:13;;;;;;;10.00;5.07;;;537.90;2406.40;;;;;;4897691;29;20028;-73
2023/06/08 06:03:40;;;;;;;9.35;6.20;;;538.00;2406.40;;;;;;4897440;29;20035;-74
2023/06/08 06:06:06;;;;;;;11.60;5.68;;;538.00;2406.40;;;;;;4897512;29;20052;-75
2023/06/08 06:08:32;;;;;;;12.07;5.32;;;538.10;2406.40;;;;;;4897425;29;20025;-72
2023/06/08 06:10:58;;;;;;;8.93;5.45;;;538.20;2406.40;;;;;;4897494;29;20035;-79
2023/06/08 06:13:24;;;;;;;13.13;5.38;;;538.20;2406.40;;;;;;4897673;29;20052;-76
2023/06/08 06:15:50;;;;;;;10.77;5.38;;;538.30;2406.40;;;;;;4897256;29;20020;-73
2023/06/08 06:18:16;;;;;;;10.88;5.63;;;538.50;2406.40;;;;;;4896789;29;20083;-76
2023/06/08 06:20:42;;;;;;;16.70;5.45;;;538.50;2406.40;;;;;;4897308;29;20096;-72
2023/06/08 06:23:08;;;;;;;7.78;5.70;;;563.30;2432.00;;;;;;4897497;29;20479;-80
2023/06/08 06:25:35;;;;;;;9.68;5.05;;;563.40;2432.00;;;;;;4897351;29;20184;-77
2023/06/08 06:28:02;;;;;;;8.80;5.32;;;563.50;2432.00;;;;;;4897269;29;20029;-72
2023/06/08 06:30:27;;;;;;;9.05;4.93;;;563.50;2432.00;;;;;;4897022;29;20135;-72
2023/06/08 06:32:53;;;;;;;9.23;5.40;;;563.40;2432.00;;;;;;4897337;29;20504;-76
2023/06/08 06:35:19;;;;;;;7.57;4.60;;;563.30;2432.00;;;;;;4901533;29;20079;-75
2023/06/08 06:37:45;;;;;;;9.60;4.50;;;563.30;2432.00;;;;;;4900927;29;20474;-76
2023/06/08 06:40:11;;;;;;;7.47;5.22;;;563.40;2432.00;;;;;;4900894;29;20031;-79
2023/06/08 06:42:37;;;;;;;8.77;4.78;;;563.50;2432.00;;;;;;4890401;29;20040;-75
2023/06/08 06:45:04;;;;;;;11.15;5.00;;;563.50;2432.00;;;;;;4900847;29;20029;-74
2023/06/08 06:47:30;;;;;;;8.80;4.80;;;563.50;2432.00;;;;;;4900880;29;20475;-74
2023/06/08 06:49:55;;;;;;;8.18;4.50;;;563.60;2432.00;;;;;;4900696;29;20036;-73
2023/06/08 06:52:21;;;;;;;10.55;4.88;;;563.60;2432.00;;;;;;4900695;29;20060;-73
2023/06/08 06:54:47;;;;;;;9.52;4.75;;;563.60;2432.00;;;;;;4883829;29;20100;-76
2023/06/08 06:57:12;;;;;;;9.63;4.50;;;563.90;2432.00;;;;;;4899822;29;20116;-75
2023/06/08 06:59:39;;;;;;;6.97;4.35;;;563.90;2432.00;;;;;;4901003;29;20037;-75
2023/06/08 07:02:06;;;;;;;10.73;5.28;;;564.00;2432.00;;;;;;4900531;29;20028;-78
2023/06/08 07:04:32;;;;;;;9.20;4.55;;;564.00;2432.00;;;;;;4898811;29;20032;-75
2023/06/08 07:06:57;;;;;;;8.75;4.47;;;564.10;2432.00;;;;;;4900512;29;20360;-76
2023/06/08 07:09:24;;;;;;;6.65;4.40;;;588.80;2432.00;;;;;;4900188;29;20064;-77
2023/06/08 07:11:51;;;;;;;6.60;4.15;;;588.90;2432.00;;;;;;4900454;29;20021;-75
2023/06/08 07:14:17;;;;;;;10.43;4.47;;;588.80;2432.00;;;;;;4897542;29;20017;-77
2023/06/08 07:16:42;;;;;;;7.30;4.07;;;588.90;2432.00;;;;;;4900052;29;20386;-74
2023/06/08 07:19:08;;;;;;;9.02;5.05;;;588.90;2432.00;;;;;;4900127;29;20039;-75
2023/06/08 07:21:38;;;;;;;8.20;4.43;;;589.00;2432.00;;;;;;4900545;29;20063;-75
2023/06/08 07:24:06;;;;;;;9.02;4.22;;;589.00;2432.00;;;;;;4900181;29;20056;-73
2023/06/08 07:26:31;;;;;;;7.32;4.90;;;589.00;2432.00;;;;;;4899986;29;20024;-74
2023/06/08 07:28:58;;;;;;;10.88;4.60;;;589.00;2432.00;;;;;;4900226;29;20045;-72
2023/06/08 07:31:25;;;;;;;10.82;4.85;;;589.10;2432.00;;;;;;4900024;29;20032;-72
2023/06/08 07:33:51;;;;;;;7.82;4.30;;;589.10;2432.00;;;;;;4899847;29;20024;-75
2023/06/08 07:36:17;;;;;;;8.10;4.07;;;589.30;2432.00;;;;;;4899936;29;20031;-73
2023/06/08 07:38:42;;;;;;;8.23;4.30;;;589.40;2432.00;;;;;;4882963;29;20039;-74
2023/06/08 07:41:08;;;;;;;8.88;4.60;;;589.50;2432.00;;;;;;4899915;29;20492;-75
2023/06/08 07:43:34;;;;;;;14.05;4.22;;;589.60;2432.00;;;;;;4898540;29;20040;-75
2023/06/08 07:45:59;;;;;;;5.07;3.63;;;589.70;2432.00;;;;;;4883405;29;20029;-72
2023/06/08 07:48:25;;;;;;;9.07;4.28;;;614.40;2432.00;;;;;;4898581;29;20085;-73
2023/06/08 07:50:51;;;;;;;8.15;4.00;;;614.40;2432.00;;;;;;4899770;29;20475;-73
2023/06/08 07:53:17;;;;;;;7.40;4.40;;;614.50;2432.00;;;;;;4899788;29;20463;-73
2023/06/08 07:55:43;;;;;;;6.70;3.95;;;614.50;2432.00;;;;;;4899524;29;20056;-72
2023/06/08 07:58:09;;;;;;;12.52;4.13;;;614.50;2432.00;;;;;;4899181;29;20091;-73
2023/06/08 08:00:35;;;;;;;8.48;3.88;;;614.50;2432.00;;;;;;4899600;29;20040;-74
2023/06/08 08:03:03;;;;;;;8.02;4.10;;;614.50;2432.00;;;;;;4886335;29;20484;-78
2023/06/08 08:05:30;;;;;;;9.45;4.15;;;614.50;2432.00;;;;;;4899305;29;20028;-71
2023/06/08 08:07:56;;;;;;;6.78;3.60;;;614.60;2432.00;;;;;;4899184;29;20016;-73
2023/06/08 08:10:21;;;;;;;7.10;4.13;;;614.70;2432.00;;;;;;4899292;29;20037;-73
2023/06/08 08:12:47;;;;;;;5.40;3.75;;;614.80;2432.00;;;;;;4886415;29;20120;-74
2023/06/08 08:15:13;;;;;;;6.78;4.20;;;614.80;2355.20;;;;;;4882419;29;20550;-75
2023/06/08 08:17:39;;;;;;;6.50;3.78;;;614.80;2355.20;;;;;;4899327;29;20064;-72
2023/06/08 08:20:05;;;;;;;8.30;3.65;;;614.80;2432.00;;;;;;4899201;29;20470;-74
2023/06/08 08:22:32;;;;;;;6.25;3.90;;;614.90;2432.00;;;;;;4899395;29;20059;-75
2023/06/08 08:24:58;;;;;;;5.22;3.20;;;614.90;2380.80;;;;;;4899223;29;20031;-73
2023/06/08 08:27:24;;;;;;;7.32;3.75;;;614.90;2176.00;;;;;;4898708;29;20025;-74
2023/06/08 08:29:50;;;;;;;9.05;4.00;;;615.00;2201.60;;;;;;4898944;29;20033;-72
2023/06/08 08:32:15;;;;;;;9.38;3.92;;;615.10;2150.40;;;;;;4898596;29;20471;-75
2023/06/08 08:34:41;;;;;;;9.38;3.90;;;615.10;2150.40;;;;;;4898272;29;20029;-72
2023/06/08 08:37:07;;;;;;;9.50;3.60;;;615.00;2176.00;;;;;;4898831;29;20085;-72
2023/06/08 08:39:32;;;;;;;6.10;3.70;;;615.10;2278.40;;;;;;4898932;29;20560;-75
2023/06/08 08:42:04;;;;;;;6.07;3.25;;;615.20;2150.40;;;;;;4883436;29;20513;-79
2023/06/08 08:44:33;;;;;;;9.40;4.13;;;615.30;2150.40;;;;;;4898377;29;20562;-76
2023/06/08 08:47:02;;;;;;;16.42;4.88;;;640.00;2278.40;;;;;;4898563;29;20055;-73
2023/06/08 08:49:32;;;;;;;10.65;4.32;;;640.20;2073.60;;;;;;4898501;29;20480;-75
2023/06/08 08:52:01;;;;;;;6.28;4.20;;;640.30;1971.20;;;;;;4899350;29;20080;-75
2023/06/08 08:54:31;;;;;;;16.48;6.07;;;640.40;1996.80;;;;;;4898388;29;20028;-75
2023/06/08 08:56:58;;;;;;;9.77;4.13;;;640.50;1945.60;;;;;;4898334;29;20048;-78
2023/06/08 08:59:27;;;;;;;11.43;4.05;;;640.60;2022.40;;;;;;4898431;29;20109;-75
2023/06/08 09:01:52;;;;;;;9.02;4.38;;;640.50;1920.00;;;;;;4898523;29;20408;-75
2023/06/08 09:04:18;;;;;;;10.50;3.90;;;640.60;1894.40;;;;;;4898500;29;20028;-79
2023/06/08 09:06:48;;;;;;;9.05;4.13;;;640.60;1868.80;;;;;;4898408;29;20112;-79
2023/06/08 09:09:14;;;;;;;10.00;3.65;;;640.60;1920.00;;;;;;4897803;29;20115;-81
2023/06/08 09:12:03;;;;;;;5.65;3.88;;;640.70;2022.40;;;;;;4898669;29;20065;-75
2023/06/08 09:14:29;;;;;;;8.25;3.47;;;640.70;1894.40;;;;;;4881242;29;20080;-76
2023/06/08 09:16:58;;;;;;;7.60;4.15;;;640.70;1868.80;;;;;;4898397;29;20487;-73
2023/06/08 09:19:24;;;;;;;7.45;3.88;;;640.60;1894.40;;;;;;4898459;29;20040;-78
2023/06/08 09:21:51;;;;;;;16.80;4.75;;;640.60;1996.80;;;;;;4898061;29;20071;-73
2023/06/08 09:24:20;;;;;;;7.40;3.58;;;640.80;1971.20;;;;;;4901458;29;20025;-73
2023/06/08 09:26:55;;;;;;;8.20;3.85;;;640.70;1894.40;;;;;;4904207;29;20504;-71
2023/06/08 09:29:32;;;;;;;;;;;640.90;1894.40;;;;;;4902398;29;20103;-77
2023/06/08 09:32:00;;;;;;;6.03;3.70;;;665.60;1945.60;;;;;;4898164;29;19907;-78
2023/06/08 09:34:29;;;;;;;8.00;4.63;;;665.60;1945.60;;;;;;4898063;29;20073;-72
2023/06/08 09:37:15;;;;;;;10.93;5.03;;;665.70;2124.80;;;;;;4897854;29;20029;-74
2023/06/08 09:39:45;;;;;;;10.15;4.68;;;665.90;2073.60;;;;;;4897168;29;20025;-73
2023/06/08 09:42:11;;;;;;;9.02;3.90;;;666.20;1920.00;;;;;;4871718;29;20037;-72
2023/06/08 09:44:38;;;;;;;9.68;4.20;;;666.20;1894.40;;;;;;4897499;29;20032;-73
2023/06/08 09:47:25;;;;;;;7.15;4.60;;;666.20;1894.40;;;;;;4897624;29;20033;-72
2023/06/08 09:49:51;;;;;;;6.22;3.92;;;666.00;1945.60;;;;;;4880288;29;20063;-78
2023/06/08 09:52:22;;;;;;;6.72;4.05;;;666.30;1971.20;;;;;;4898069;29;20493;-79
2023/06/08 09:54:49;;;;;;;7.15;4.03;;;666.20;1971.20;;;;;;4897733;29;20051;-73
2023/06/08 09:57:17;;;;;;;7.50;3.65;;;666.30;1945.60;;;;;;4896994;29;20092;-74
2023/06/08 09:59:52;;;;;;;12.50;4.55;;;666.30;1920.00;;;;;;4897034;29;20037;-74
2023/06/08 10:02:21;;;;;;;11.57;5.28;;;666.30;1945.60;;;;;;4897073;29;20116;-79
2023/06/08 10:04:53;;;;;;;10.82;4.53;;;666.40;1996.80;;;;;;4897205;29;20093;-75
2023/06/08 10:07:29;;;;;;;9.50;4.30;;;666.40;1894.40;;;;;;4893395;29;20084;-78
2023/06/08 10:10:18;;;;;;;7.45;4.68;;;666.20;1868.80;;;;;;4897066;29;20094;-76
2023/06/08 10:12:44;;;;;;;10.52;4.93;;;666.20;1920.00;;;;;;4879274;29;20089;-73
2023/06/08 10:15:11;;;;;;;10.00;4.25;;;666.10;1920.00;;;;;;4897507;29;20025;-76
2023/06/08 10:17:39;;;;;;;5.72;4.00;;;666.30;2022.40;;;;;;4901369;29;20542;-73
2023/06/08 10:20:06;;;;;;;9.90;5.30;;;666.30;2099.20;;;;;;4901489;29;20518;-77
2023/06/08 10:22:32;;;;;;;7.18;4.18;;;666.40;1945.60;;;;;;4900980;29;20029;-73
2023/06/08 10:24:58;;;;;;;9.52;4.88;;;666.30;1996.80;;;;;;4901294;29;20080;-72
2023/06/08 10:27:24;;;;;;;8.07;4.78;;;691.20;2022.40;;;;;;4900931;29;20021;-74
2023/06/08 10:29:57;;;;;;;9.27;5.00;;;691.30;1945.60;;;;;;4900930;29;20447;-72
2023/06/08 10:32:44;;;;;;;9.25;4.82;;;;;;;;;;4899914;29;20031;-72
2023/06/08 10:35:10;;;;;;;6.53;4.53;;;;;;;;;;4900745;29;20032;-72
2023/06/08 10:37:37;;;;;;;11.07;5.00;;;692.00;1945.60;;;;;;4899084;29;20056;-73
2023/06/08 10:40:08;;;;;;;12.15;5.00;;;692.10;1817.60;;;;;;4901006;29;20470;-74
2023/06/08 10:42:34;;;;;;;8.45;4.90;;;692.00;1740.80;;;;;;4900760;29;20025;-76
2023/06/08 10:45:02;;;;;;;8.63;4.60;;;692.10;1740.80;;;;;;4900566;29;20032;-78
2023/06/08 10:47:31;;;;;;;9.70;4.75;;;716.80;1792.00;;;;;;4873569;29;20080;-75
2023/06/08 10:50:06;;;;;;;6.88;4.28;;;716.90;1792.00;;;;;;4899368;29;20033;-74
2023/06/08 10:52:45;;;;;;;10.02;4.78;;;717.20;1715.20;;;;;;4901148;29;20032;-75
2023/06/08 10:55:16;;;;;;;27.42;7.88;;;717.20;1740.80;;;;;;4900767;29;20063;-73
2023/06/08 10:57:53;;;;;;;13.63;4.85;;;717.20;1817.60;;;;;;4900292;29;20555;-74
2023/06/08 11:00:23;;;;;;;6.95;4.78;;;717.20;1817.60;;;;;;4900642;29;20089;-76
2023/06/08 11:02:50;;;;;;;6.88;4.10;;;717.30;1689.60;;;;;;4883425;29;20032;-75
2023/06/08 11:05:19;;;;;;;10.70;4.40;;;717.20;1689.60;;;;;;4900422;29;20043;-74
2023/06/08 11:07:45;;;;;;;7.97;3.83;;;717.10;1689.60;;;;;;4900299;29;20032;-72
2023/06/08 11:10:11;;;;;;;9.60;4.90;;;717.30;1740.80;;;;;;4900225;29;20112;-75
2023/06/08 11:12:36;;;;;;;11.00;4.43;;;717.10;1715.20;;;;;;4899959;29;20132;-72
2023/06/08 11:15:03;;;;;;;7.88;4.38;;;717.20;1715.20;;;;;;4900152;29;20076;-75
2023/06/08 11:17:30;;;;;;;9.38;4.90;;;717.30;1740.80;;;;;;4900209;29;20024;-75
2023/06/08 11:19:56;;;;;;;6.70;4.45;;;717.40;1792.00;;;;;;4883290;29;20021;-73
2023/06/08 11:22:22;;;;;;;11.82;5.70;;;717.50;1792.00;;;;;;4897727;29;20032;-73
2023/06/08 11:24:50;;;;;;;12.77;4.60;;;717.40;1715.20;;;;;;4899982;29;20028;-73
2023/06/08 11:27:19;;;;;;;9.82;4.60;;;717.60;1766.40;;;;;;4899824;29;20032;-73
2023/06/08 11:29:47;;;;;;;14.60;5.18;;;717.60;1766.40;;;;;;4899868;29;20055;-74
2023/06/08 11:32:15;;;;;;;7.40;4.45;;;717.60;1715.20;;;;;;4900332;29;20021;-71
2023/06/08 11:34:45;;;;;;;11.10;4.20;;;717.70;1740.80;;;;;;4900063;29;20025;-73
2023/06/08 11:37:16;;;;;;;9.52;4.72;;;742.40;1715.20;;;;;;4899870;29;20115;-73
2023/06/08 11:39:46;;;;;;;8.23;5.43;;;717.70;1792.00;;;;;;4899697;29;20025;-74
2023/06/08 11:42:12;;;;;;;8.35;4.90;;;742.40;1817.60;;;;;;4896207;29;20029;-73
2023/06/08 11:44:38;;;;;;;8.98;4.47;;;742.40;1715.20;;;;;;4899750;29;20076;-74
2023/06/08 11:47:10;;;;;;;12.23;5.03;;;742.40;1715.20;;;;;;4899466;29;20033;-74
2023/06/08 11:49:55;;;;;;;8.35;4.88;;;742.60;1638.40;;;;;;4899599;29;20067;-73
2023/06/08 11:52:27;;;;;;;7.65;4.85;;;742.60;1689.60;;;;;;4883116;29;20052;-73
2023/06/08 11:54:59;;;;;;;14.85;5.78;;;742.60;1740.80;;;;;;4898364;29;20376;-73
2023/06/08 11:57:43;;;;;;;7.15;4.70;;;742.90;1766.40;;;;;;4889196;29;20190;-74
2023/06/08 12:00:21;;;;;;;8.15;4.75;;;742.90;1689.60;;;;;;4877989;29;20116;-73
2023/06/08 12:02:48;;;;;;;6.80;4.25;;;742.80;1740.80;;;;;;4877767;29;20017;-75
2023/06/08 12:05:24;;;;;;;8.23;4.43;;;742.60;1715.20;;;;;;4880570;29;20024;-73
2023/06/08 12:08:00;;;;;;;5.80;4.47;;;742.60;1715.20;;;;;;4880489;29;20029;-74
2023/06/08 12:10:41;;;;;;;7.30;4.70;;;742.60;1740.80;;;;;;4880403;29;20029;-74
2023/06/08 12:13:13;;;;;;;6.22;4.40;;;717.60;1740.80;;;;;;4880380;29;20053;-77
2023/06/08 12:15:47;;;;;;;14.20;4.95;;;717.70;1715.20;;;;;;4878873;29;20029;-72
2023/06/08 12:18:16;;;;;;;8.93;4.78;;;742.40;1740.80;;;;;;4879234;29;20057;-74
2023/06/08 12:20:43;;;;;;;11.77;4.68;;;742.60;1715.20;;;;;;4878937;29;20923;-74
2023/06/08 12:23:09;;;;;;;11.70;4.80;;;742.90;1689.60;;;;;;4880454;29;20036;-74